Дата Пункты Температура Давл., мм. Влажн., % Ветер Погодные явления
Воздуха Воды Направл. Скорость
12.03.15 10:00 Одесса 6.0 4.0 756 90 З 2 23 часа
12.03.15 07:00 Одесса 6.0 4.0 757 92 С-З 1 20 часов
12.03.15 04:00 Одесса 5.0 4.0 756 97 Ю-В 1 17 часов
12.03.15 01:00 Одесса 5.0 4.0 757 94 С-В 1 14 часов
12.03.15 10:00 Одесса 5.0 4.0 757 97 Ю 3 11 часов
12.03.15 07:00 Одесса 5.0 4.0 756 94 З 1 08 часов
12.03.15 04:00 Одесса 4.0 4.0 756 96 Ю 2 05 часов
12.03.15 01:00 Одесса 4.0 4.0 756 96 Ю 1 02 часа
11.03.15 10:00 Одесса 5.0 4.0 756 96 Ю-З 1 23 часа
11.03.15 07:00 Одесса 5.0 4.0 756 95 З 3 20 часов
11.03.15 04:00 Одесса 6.0 4.0 757 95 Ю-З 2 17 часов
11.03.15 01:00 Одесса 8.0 4.0 758 53 С-З 3 14 часов
11.03.15 10:00 Одесса 7.0 4.0 760 52 С 1 11 часов
11.03.15 07:00 Одесса 4.0 4.0 760 70 С 3 08 часов
11.03.15 04:00 Одесса 3.0 4.0 761 76 С 2 05 часов
11.03.15 01:00 Одесса 3.0 4.0 763 73 С 1 02 часа
10.03.15 10:00 Одесса 6.0 4.0 764 53 С 1 23 часа
10.03.15 07:00 Одесса 6.0 4.0 765 51 З 2 20 часов
10.03.15 04:00 Одесса 8.0 4.0 765 45 С-В 2 17 часов
10.03.15 01:00 Одесса 7.0 4.0 767 59 С-В 2 14 часов
Количество строк
331 332 333 334 335 336 337 338 339 340
Page 339 of 407